Terminal Aerodrome Forecast
Issued by NWS

Home | Current Version | Previous Version | Text Only | Print | Product List | Glossary On
Versions: 1 2 3 4 5 6 7 8 9 10 11 12
000
FTAK31 PAJN 221100
TAFASI
TAF
PASI 221127Z 2212/2312 34006KT P6SM SCT008 BKN200
      TEMPO 2212/2216 BKN008 OVC200
     FM221900 30006KT P6SM FEW008 BKN150
     FM230600 33005KT P6SM BKN008 OVC100=

USA.gov is the U.S. government's official web portal to all federal, state and local government web resources and services.